01:25 Rennrad Innsbruck ARZ - Voels - Kematen - Hatting - Pettnau - Moetz
Ort Innsbruck Datum 10.03.2015 17:10:04
Kategorie Rennrad
Distanz 40,82 Kilometer Steigung 207,0 Meter Gefälle -152,0 Meter
Gesamt Zeit 01:25:43 Aktiv 01:25:31 Pause 00:00:12
Durchs. Tempo 28,6 km/h Tempo max. 49,4 km/h Tempo min. 16,7 km/h
Kalorien 0 Durchs. HF 119 BPM HF max. 146 BPM
Wetter 12 °C MostClouds Min/Max: 10,0 °C/14,1 °C; Druck: 1022,6 mbar; Rel. Feuchte: 35,1%; Taupunkt: -3,2 °C; Windgeschwindigkeit: 2,9 km/h; Niederschlag: 0,0mm
Ausrüstung Bontrager - RXL Road
Continental - Grand Prix 4000 S
Poison - Rennrad
Shimano - HG CN-7901 Dura Ace
Notiz Innsbruck ARZ - Voels - Kematen - Hatting - Pettnau - Moetz ... trocken, nicht allzu kalt, bis Pettnau starker Gegenwind, dann ständig drehend, am Ende ziemlich dunkel ... garmin connect
Splits
Distanz (km) Gesamt Zeit Split Zeit Split Tempo Split Tempo Höhenprofil (m)
1,00 00:01:57 00:01:57 00:01:57 30,7 -3,07
2,00 00:04:10 00:02:13 00:02:13 27,0 -2,06
3,00 00:06:29 00:02:18 00:02:18 26,0 9,01
4,00 00:09:07 00:02:38 00:02:38 22,8 27,65
5,00 00:10:54 00:01:47 00:01:47 33,6 -26,08
6,00 00:12:41 00:01:46 00:01:47 33,7 -2,13
7,00 00:14:55 00:02:14 00:02:14 26,8 0,95
8,00 00:17:01 00:02:06 00:02:06 28,5 3,21
9,00 00:19:10 00:02:08 00:02:08 28,1 1,88
10,00 00:21:23 00:02:13 00:02:13 27,0 2,39
11,00 00:24:02 00:02:39 00:02:39 22,6 17,67
12,00 00:26:28 00:02:26 00:02:26 24,6 3,42
13,00 00:27:59 00:01:30 00:01:31 39,7 -17,70
14,00 00:30:06 00:02:07 00:02:07 28,3 -0,51
15,00 00:32:01 00:01:55 00:01:55 31,2 4,91
16,00 00:33:59 00:01:57 00:01:57 30,6 0,41
17,00 00:36:13 00:02:14 00:02:14 26,8 7,15
18,00 00:38:14 00:02:01 00:02:01 29,7 3,91
19,00 00:40:49 00:02:34 00:02:35 23,2 10,48
20,00 00:42:36 00:01:47 00:01:47 33,6 -11,35
21,00 00:44:44 00:02:07 00:02:08 28,2 -6,31
22,00 00:46:45 00:02:00 00:02:01 29,8 5,49
23,00 00:49:00 00:02:14 00:02:15 26,7 0,68
24,00 00:51:10 00:02:10 00:02:10 27,6 1,67
25,00 00:53:11 00:02:00 00:02:01 29,8 5,97
26,00 00:55:19 00:02:08 00:02:09 28,0 -3,81
27,00 00:57:20 00:02:00 00:02:00 29,9 6,17
28,00 00:59:24 00:02:03 00:02:04 29,1 -1,20
29,00 01:01:26 00:02:02 00:02:02 29,4 1,06
30,00 01:03:30 00:02:04 00:02:04 29,0 5,11
31,00 01:05:40 00:02:09 00:02:09 27,9 -1,29
32,00 01:07:37 00:01:57 00:01:57 30,7 1,65
33,00 01:09:34 00:01:57 00:01:57 30,8 2,38
34,00 01:11:45 00:02:11 00:02:11 27,4 7,07
35,00 01:13:41 00:01:55 00:01:56 31,1 1,28
36,00 01:15:39 00:01:57 00:01:58 30,6 -1,67
37,00 01:17:35 00:01:56 00:01:56 31,0 1,64
38,00 01:19:34 00:01:59 00:01:59 30,3 3,97
39,00 01:21:34 00:02:00 00:02:00 29,9 0,03
40,00 01:23:35 00:02:00 00:02:01 29,8 -0,80
40,80 01:25:31 00:01:55 00:02:24 25,0 10,55